Time;durP1;ratioP1;P1;durP2;ratioP2;P2;SDS_P1;SDS_P2;PMS_P1;PMS_P2;Temp;Humidity;BMP_temperature;BMP_pressure;BME280_temperature;BME280_humidity;BME280_pressure;Samples;Min_cycle;Max_cycle;Signal;HPM_P1;HPM_P2
2023/01/01 00:02:06;;;;;;;5.45;4.70;;;;;;;6.04;60.42;96561.53;4965691;28;20638;-66
2023/01/01 00:04:33;;;;;;;3.97;3.45;;;;;;;6.12;60.31;96564.00;4963717;28;20215;-67
2023/01/01 00:07:00;;;;;;;3.05;2.85;;;;;;;6.09;60.20;96556.59;4965408;28;20221;-64
2023/01/01 00:12:12;;;;;;;12.65;7.05;;;;;;;6.23;60.17;96563.50;4956153;28;20207;-65
2023/01/01 00:14:41;;;;;;;2.70;2.50;;;;;;;6.34;60.19;96562.19;4961536;28;20278;-68
2023/01/01 00:17:09;;;;;;;5.00;3.25;;;;;;;6.26;59.99;96559.72;4954728;28;20340;-68
2023/01/01 00:19:36;;;;;;;8.70;6.90;;;;;;;6.18;60.21;96573.69;4959937;28;20222;-65
2023/01/01 00:22:02;;;;;;;6.82;5.03;;;;;;;6.00;60.07;96557.72;4962109;28;20274;-70
2023/01/01 00:24:49;;;;;;;6.70;5.03;;;;;;;6.05;59.46;96560.56;4957968;28;20198;-66
2023/01/01 00:27:16;;;;;;;6.40;4.28;;;;;;;5.96;59.33;96569.47;4962436;28;20309;-66
2023/01/01 00:29:43;;;;;;;5.40;4.78;;;;;;;5.86;59.33;96579.38;4966154;28;20786;-66
2023/01/01 00:32:11;;;;;;;4.07;3.80;;;;;;;5.51;59.35;96567.97;4957601;28;20196;-66
2023/01/01 00:34:44;;;;;;;5.25;4.20;;;;;;;5.50;59.88;96586.34;4954288;28;20209;-63
2023/01/01 00:37:13;;;;;;;6.53;4.40;;;;;;;5.48;60.17;96585.72;4971893;28;20234;-67
2023/01/01 00:39:40;;;;;;;21.20;12.63;;;;;;;5.35;61.32;96580.34;4955726;28;20568;-67
2023/01/01 00:42:07;;;;;;;13.38;9.77;;;;;;;5.44;60.69;96574.09;4961693;28;20266;-65
2023/01/01 00:44:34;;;;;;;14.32;10.38;;;;;;;5.62;59.94;96579.69;4962400;28;20318;-67
2023/01/01 00:47:00;;;;;;;14.05;8.70;;;;;;;5.38;59.97;96569.63;4961551;28;20207;-64
2023/01/01 00:49:27;;;;;;;7.75;6.35;;;;;;;5.45;60.46;96586.09;4968922;28;20223;-66
2023/01/01 00:51:54;;;;;;;23.80;9.52;;;;;;;5.60;59.73;96589.47;4971366;28;20219;-65
2023/01/01 00:54:21;;;;;;;12.32;8.45;;;;;;;5.37;59.95;96578.38;4957789;28;20199;-69
2023/01/01 00:56:48;;;;;;;8.15;7.25;;;;;;;5.32;60.84;96580.72;4970918;28;20249;-65
2023/01/01 00:59:14;;;;;;;15.18;11.38;;;;;;;4.78;61.88;96594.00;4953004;28;20288;-63
2023/01/01 01:01:41;;;;;;;28.45;15.90;;;;;;;4.40;64.00;96589.03;4952242;28;20644;-65
2023/01/01 01:04:08;;;;;;;11.60;8.55;;;;;;;4.38;65.45;96594.38;4954177;28;20197;-66
2023/01/01 01:06:35;;;;;;;20.33;13.30;;;;;;;4.56;65.19;96584.47;4951708;28;20586;-65
2023/01/01 01:09:03;;;;;;;16.08;12.35;;;;;;;4.76;64.51;96585.59;4968795;28;20647;-62
2023/01/01 01:11:30;;;;;;;15.45;13.65;;;;;;;4.71;64.97;96555.94;4953002;28;20219;-63
2023/01/01 01:13:57;;;;;;;24.27;16.80;;;;;;;5.00;65.61;96582.72;4951865;28;20207;-66
2023/01/01 01:16:26;;;;;;;15.27;11.23;;;;;;;5.16;64.94;96582.53;4950676;28;20207;-65
2023/01/01 01:19:00;;;;;;;22.35;15.20;;;;;;;5.07;64.43;96572.44;4952217;28;20192;-69
2023/01/01 01:21:29;;;;;;;16.67;9.93;;;;;;;5.33;64.04;96577.16;4957395;28;20206;-66
2023/01/01 01:23:58;;;;;;;14.45;12.68;;;;;;;5.25;63.89;96585.06;4957499;28;20187;-65
2023/01/01 01:26:29;;;;;;;11.98;9.57;;;;;;;5.39;62.95;96577.22;4951708;28;20675;-65
2023/01/01 01:28:57;;;;;;;15.23;10.70;;;;;;;5.39;61.79;96581.63;4957398;28;20219;-63
2023/01/01 01:31:28;;;;;;;18.65;8.65;;;;;;;5.15;61.90;96560.16;4963918;28;20239;-65
2023/01/01 01:33:56;;;;;;;5.85;5.35;;;;;;;4.78;62.50;96556.84;4958298;28;20206;-63
2023/01/01 01:36:23;;;;;;;11.15;10.10;;;;;;;5.12;62.90;96570.91;4952081;28;20208;-66
2023/01/01 01:38:50;;;;;;;13.63;8.95;;;;;;;5.17;62.10;96562.56;4950522;29;20200;-62
2023/01/01 01:41:20;;;;;;;13.77;9.70;;;;;;;5.16;62.10;96571.34;4941281;29;20239;-66
2023/01/01 01:44:01;;;;;;;33.60;17.48;;;;;;;5.14;63.19;96568.94;4947925;29;20714;-62
2023/01/01 01:46:33;;;;;;;15.85;14.25;;;;;;;5.27;62.17;96567.47;4948031;29;20222;-61
2023/01/01 01:49:05;;;;;;;9.98;6.45;;;;;;;5.02;63.33;96570.38;4947380;29;20263;-61
2023/01/01 01:51:38;;;;;;;10.65;8.02;;;;;;;5.25;61.94;96566.84;4945354;29;20259;-61
2023/01/01 01:54:14;;;;;;;12.65;10.10;;;;;;;5.18;61.19;96574.59;4936301;29;20299;-61
2023/01/01 01:56:48;;;;;;;21.63;11.23;;;;;;;5.46;60.35;96569.50;4947448;29;20263;-61
2023/01/01 01:59:18;;;;;;;12.38;11.15;;;;;;;5.37;60.53;96573.19;4947955;29;20282;-61
2023/01/01 02:01:45;;;;;;;16.27;11.95;;;;;;;5.27;60.92;96580.47;4949607;29;20323;-62
2023/01/01 02:04:12;;;;;;;8.18;7.00;;;;;;;5.53;60.20;96578.19;4950501;29;20239;-63
2023/01/01 02:06:39;;;;;;;10.32;9.38;;;;;;;5.58;60.80;96581.06;4950773;29;20199;-62
2023/01/01 02:09:08;;;;;;;12.07;11.02;;;;;;;5.31;61.82;96584.34;4949840;29;20602;-61
2023/01/01 02:11:34;;;;;;;5.57;5.18;;;;;;;5.29;62.01;96589.72;4949842;29;20203;-61
2023/01/01 02:14:02;;;;;;;11.05;8.45;;;;;;;5.28;61.63;96569.91;4950577;29;20188;-61
2023/01/01 02:16:43;;;;;;;20.02;7.72;;;;;;;4.59;64.28;96578.97;4948238;29;20212;-62
2023/01/01 02:19:36;;;;;;;7.43;6.32;;;;;;;4.10;66.98;96598.53;4947562;29;20861;-62
2023/01/01 02:22:31;;;;;;;13.55;8.57;;;;;;;4.52;66.25;96598.81;4947206;29;20295;-61
2023/01/01 02:25:07;;;;;;;5.05;4.63;;;;;;;4.59;64.79;96589.34;4951225;29;20219;-62
2023/01/01 02:27:43;;;;;;;8.93;5.78;;;;;;;4.85;64.29;96589.69;4950444;29;20215;-61
2023/01/01 02:30:10;;;;;;;7.90;7.10;;;;;;;4.90;64.96;96595.19;4947453;29;20211;-69
2023/01/01 02:32:45;;;;;;;19.02;7.30;;;;;;;4.92;64.28;96585.44;4950565;29;20255;-63
2023/01/01 02:35:37;;;;;;;7.60;6.93;;;;;;;5.31;64.45;96584.34;4950610;29;20203;-63
2023/01/01 02:38:09;;;;;;;18.80;8.18;;;;;;;5.44;62.94;96584.50;4954878;28;20204;-62
2023/01/01 02:40:41;;;;;;;10.80;9.43;;;;;;;5.66;62.91;96588.72;4957418;29;20212;-63
2023/01/01 02:43:08;;;;;;;24.13;16.80;;;;;;;5.88;62.27;96575.59;4956710;29;20659;-63
2023/01/01 02:45:35;;;;;;;17.73;9.27;;;;;;;5.80;61.68;96585.28;4956982;28;20239;-63
2023/01/01 02:48:04;;;;;;;5.05;4.38;;;;;;;5.74;61.34;96581.63;4956358;28;20594;-63
2023/01/01 02:50:32;;;;;;;7.70;6.60;;;;;;;5.58;60.94;96586.25;4957054;28;20204;-63
2023/01/01 02:53:14;;;;;;;10.20;9.25;;;;;;;5.51;61.11;96578.34;4956690;28;20253;-64
2023/01/01 02:56:18;;;;;;;5.75;5.28;;;;;;;5.38;60.88;96577.41;4956802;28;20222;-62
2023/01/01 03:02:22;;;;;;;9.60;6.43;;;;;;;4.20;64.76;96583.50;4931512;28;20251;-63
2023/01/01 03:05:02;;;;;;;12.30;6.22;;;;;;;4.54;64.94;96577.88;4956558;28;20429;-64
2023/01/01 03:07:37;;;;;;;3.35;3.13;;;;;;;4.89;62.78;96575.38;4956324;28;20191;-65
2023/01/01 03:10:14;;;;;;;4.30;3.88;;;;;;;5.01;62.23;96592.16;4956413;29;20674;-64
2023/01/01 03:13:06;;;;;;;5.57;4.93;;;;;;;4.89;61.92;96588.38;4956557;28;20211;-65
2023/01/01 03:15:46;;;;;;;9.52;8.63;;;;;;;4.98;61.15;96591.72;4949905;29;20636;-64
2023/01/01 03:18:21;;;;;;;21.17;9.40;;;;;;;5.07;61.27;96596.59;4951287;28;20254;-65
2023/01/01 03:20:50;;;;;;;11.45;6.95;;;;;;;5.03;60.75;96586.78;4951718;29;20583;-64
2023/01/01 03:23:23;;;;;;;7.65;6.50;;;;;;;4.86;61.08;96586.13;4955698;28;20200;-64
2023/01/01 03:25:56;;;;;;;3.20;3.00;;;;;;;4.93;60.90;96581.03;4954911;28;20692;-64
2023/01/01 03:28:29;;;;;;;14.60;9.18;;;;;;;4.71;61.39;96587.91;4955673;29;20327;-64
2023/01/01 03:30:57;;;;;;;12.02;9.63;;;;;;;4.70;60.98;96549.16;4956577;28;20207;-65
2023/01/01 03:33:39;;;;;;;7.70;6.68;;;;;;;5.06;60.61;96579.41;4955283;28;20204;-63
2023/01/01 03:36:16;;;;;;;26.23;12.00;;;;;;;5.03;60.46;96577.19;4956604;28;20236;-63
2023/01/01 03:38:57;;;;;;;15.02;10.60;;;;;;;5.05;60.15;96574.41;4944257;29;20204;-63
2023/01/01 03:41:53;;;;;;;15.68;7.43;;;;;;;5.07;60.19;96575.81;4953259;29;20209;-62
2023/01/01 03:44:32;;;;;;;11.95;8.77;;;;;;;4.93;60.54;96581.84;4955606;29;20789;-63
2023/01/01 03:47:01;;;;;;;18.15;12.88;;;;;;;4.64;61.25;96581.81;4957004;29;20616;-62
2023/01/01 03:49:29;;;;;;;9.48;7.85;;;;;;;4.76;61.03;96577.00;4952539;28;20228;-63
2023/01/01 03:52:15;;;;;;;11.55;8.90;;;;;;;4.37;61.58;96577.22;4953759;29;20208;-63
2023/01/01 03:55:09;;;;;;;10.75;9.20;;;;;;;4.58;61.69;96581.72;4953135;29;20263;-63
2023/01/01 03:57:37;;;;;;;5.43;4.97;;;;;;;4.13;62.46;96590.38;4948086;29;20801;-64
2023/01/01 04:00:08;;;;;;;8.98;6.00;;;;;;;4.16;62.70;96589.25;4952735;29;20200;-63
2023/01/01 04:03:00;;;;;;;7.63;5.00;;;;;;;4.04;62.56;96573.28;4952236;29;20204;-64
2023/01/01 04:05:29;;;;;;;8.55;7.72;;;;;;;4.18;62.65;96584.69;4952139;28;20266;-64
2023/01/01 04:08:00;;;;;;;13.32;6.82;;;;;;;4.16;62.62;96586.66;4952643;28;20382;-63
2023/01/01 04:10:30;;;;;;;7.05;4.57;;;;;;;4.29;62.69;96587.66;4951709;29;20660;-62
2023/01/01 04:12:57;;;;;;;8.77;5.47;;;;;;;4.23;62.29;96597.94;4952716;29;20299;-63
2023/01/01 04:15:26;;;;;;;12.73;6.90;;;;;;;4.12;62.38;96591.38;4951818;28;20549;-64
2023/01/01 04:17:53;;;;;;;5.00;4.55;;;;;;;4.13;61.84;96583.41;4953053;28;20629;-64
2023/01/01 04:20:21;;;;;;;7.85;6.30;;;;;;;4.13;62.17;96598.16;4952032;29;20295;-63
2023/01/01 04:22:48;;;;;;;7.57;6.00;;;;;;;4.16;61.85;96602.22;4950440;29;20255;-62
2023/01/01 04:25:16;;;;;;;8.15;6.13;;;;;;;3.87;62.31;96588.13;4952207;29;20247;-62
2023/01/01 04:27:43;;;;;;;10.75;7.57;;;;;;;3.83;62.54;96592.03;4953143;29;20287;-63
2023/01/01 04:30:12;;;;;;;11.43;9.10;;;;;;;4.07;62.19;96604.03;4951862;28;20254;-64
2023/01/01 04:32:39;;;;;;;21.38;6.65;;;;;;;4.25;61.60;96606.34;4952578;29;20188;-63
2023/01/01 04:35:08;;;;;;;15.73;7.43;;;;;;;4.17;61.62;96609.00;4951409;28;20212;-63
2023/01/01 04:37:35;;;;;;;7.72;6.95;;;;;;;4.06;61.80;96605.03;4952380;29;20200;-64
2023/01/01 04:40:03;;;;;;;6.55;5.97;;;;;;;4.09;61.26;96608.09;4951754;29;20203;-63
2023/01/01 04:42:29;;;;;;;6.85;6.25;;;;;;;4.06;61.50;96605.03;4952951;28;20290;-64
2023/01/01 04:44:56;;;;;;;9.38;7.22;;;;;;;4.14;61.48;96610.19;4951194;29;20330;-64
2023/01/01 04:47:25;;;;;;;8.38;6.80;;;;;;;3.99;62.10;96598.94;4952637;28;20251;-63
2023/01/01 04:49:53;;;;;;;11.65;7.32;;;;;;;3.91;62.34;96601.56;4951340;28;20227;-62
2023/01/01 04:52:20;;;;;;;8.98;6.45;;;;;;;3.87;62.15;96613.25;4951817;29;20226;-63
2023/01/01 04:54:47;;;;;;;6.07;5.03;;;;;;;3.98;62.04;96599.88;4950941;29;20203;-63
2023/01/01 04:57:14;;;;;;;13.88;9.70;;;;;;;4.06;61.69;96598.06;4949577;29;20238;-63
2023/01/01 04:59:41;;;;;;;6.65;6.07;;;;;;;3.86;62.39;96596.09;4940812;28;20270;-63
2023/01/01 05:02:07;;;;;;;10.40;7.93;;;;;;;3.96;62.14;96601.84;4953543;29;20572;-63
2023/01/01 05:04:34;;;;;;;24.95;5.10;;;;;;;3.79;62.57;96610.72;4951866;29;20210;-62
2023/01/01 05:07:01;;;;;;;7.93;6.93;;;;;;;3.78;62.57;96615.09;4952259;28;20651;-62
2023/01/01 05:09:30;;;;;;;7.10;5.82;;;;;;;3.88;62.56;96612.28;4952107;29;20566;-64
2023/01/01 05:11:57;;;;;;;3.65;3.33;;;;;;;3.93;62.71;96607.38;4952575;28;20285;-64
2023/01/01 05:14:25;;;;;;;10.82;3.45;;;;;;;3.85;62.89;96604.88;4951856;29;20271;-64
2023/01/01 05:16:52;;;;;;;6.70;4.45;;;;;;;3.84;63.03;96603.22;4948453;28;20201;-64
2023/01/01 05:19:19;;;;;;;6.05;5.10;;;;;;;3.83;62.92;96606.81;4942466;29;20624;-64
2023/01/01 05:21:46;;;;;;;9.45;6.13;;;;;;;3.85;62.96;96610.84;4951418;28;20227;-66
2023/01/01 05:24:13;;;;;;;5.75;5.15;;;;;;;4.00;62.34;96597.94;4951372;29;20287;-64
2023/01/01 05:26:42;;;;;;;10.43;6.00;;;;;;;3.95;62.49;96611.44;4949701;29;20286;-64
2023/01/01 05:29:09;;;;;;;4.85;4.50;;;;;;;4.01;62.20;96620.31;4951488;29;20295;-64
2023/01/01 05:31:43;;;;;;;5.25;4.78;;;;;;;3.88;62.24;96620.06;4949486;29;20215;-62
2023/01/01 05:34:10;;;;;;;4.13;3.33;;;;;;;3.90;62.31;96623.31;4950874;29;20195;-63
2023/01/01 05:36:37;;;;;;;7.75;6.53;;;;;;;3.89;61.92;96619.09;4945340;29;20207;-65
2023/01/01 05:39:11;;;;;;;6.65;4.70;;;;;;;3.90;62.10;96623.31;4951722;29;20283;-61
2023/01/01 05:41:39;;;;;;;12.55;8.68;;;;;;;3.91;62.11;96622.31;4950586;29;20231;-62
2023/01/01 05:44:07;;;;;;;9.00;8.10;;;;;;;3.88;62.35;96627.84;4938989;29;20196;-61
2023/01/01 05:46:35;;;;;;;13.20;9.95;;;;;;;3.79;62.81;96621.09;4950127;29;20262;-61
2023/01/01 05:49:02;;;;;;;4.57;4.25;;;;;;;3.79;62.90;96618.50;4939549;29;20661;-62
2023/01/01 05:51:30;;;;;;;6.50;4.63;;;;;;;3.87;62.74;96615.84;4950367;29;20526;-63
2023/01/01 05:53:57;;;;;;;6.15;4.15;;;;;;;3.78;62.52;96619.47;4951303;28;20192;-62
2023/01/01 05:56:26;;;;;;;12.80;8.77;;;;;;;3.81;62.72;96619.16;4950387;29;20204;-60
2023/01/01 05:58:53;;;;;;;7.13;5.82;;;;;;;3.72;62.88;96609.81;4941139;29;20200;-61
2023/01/01 06:01:22;;;;;;;6.05;4.05;;;;;;;3.70;63.04;96622.94;4950693;29;20295;-64
2023/01/01 06:03:50;;;;;;;5.47;4.68;;;;;;;3.73;62.78;96617.41;4960977;28;20216;-62
2023/01/01 06:06:20;;;;;;;18.27;6.97;;;;;;;3.58;63.04;96620.88;4952317;28;20208;-62
2023/01/01 06:08:52;;;;;;;6.85;5.25;;;;;;;3.01;65.30;96618.53;4951277;28;20220;-61
2023/01/01 06:11:19;;;;;;;4.97;4.47;;;;;;;2.71;67.23;96631.38;4950996;28;20283;-61
2023/01/01 06:13:50;;;;;;;10.60;4.40;;;;;;;2.17;70.86;96634.66;4950839;29;20266;-63
2023/01/01 06:16:16;;;;;;;5.57;5.13;;;;;;;2.94;68.55;96629.72;4951425;29;20200;-62
2023/01/01 06:18:44;;;;;;;5.15;4.57;;;;;;;3.47;65.53;96622.06;4952021;28;20203;-62
2023/01/01 06:21:19;;;;;;;6.10;5.45;;;;;;;3.86;64.24;96632.41;4951059;29;20207;-62
2023/01/01 06:23:46;;;;;;;9.82;7.07;;;;;;;3.97;63.51;96634.59;4952447;29;20205;-63
2023/01/01 06:26:16;;;;;;;20.77;9.40;;;;;;;3.85;63.31;96635.97;4951499;28;20260;-62
2023/01/01 06:28:43;;;;;;;10.70;7.50;;;;;;;3.83;63.17;96632.75;4951255;28;20275;-62
2023/01/01 06:31:14;;;;;;;7.35;6.65;;;;;;;3.96;62.60;96638.97;4951067;29;20620;-62
2023/01/01 06:33:42;;;;;;;7.18;4.60;;;;;;;4.03;62.56;96644.28;4951444;29;20279;-62
2023/01/01 06:36:11;;;;;;;12.52;8.57;;;;;;;4.07;62.38;96637.75;4950637;29;20659;-62
2023/01/01 06:38:40;;;;;;;5.47;5.05;;;;;;;4.14;62.19;96636.13;4946248;29;20681;-62
2023/01/01 06:41:11;;;;;;;15.45;6.43;;;;;;;4.12;62.53;96651.03;4950424;29;20203;-62
2023/01/01 06:43:38;;;;;;;5.43;4.93;;;;;;;4.13;62.34;96652.66;4950820;29;20235;-62
2023/01/01 06:46:25;;;;;;;8.20;7.25;;;;;;;4.29;62.19;96649.94;4949512;29;20224;-62
2023/01/01 06:48:58;;;;;;;21.80;4.90;;;;;;;4.27;62.24;96657.06;4950618;28;20220;-62
2023/01/01 06:51:28;;;;;;;5.72;5.15;;;;;;;4.42;61.90;96660.53;4949915;29;20250;-63
2023/01/01 06:53:58;;;;;;;4.80;4.40;;;;;;;4.41;61.83;96664.13;4950433;28;20200;-61
2023/01/01 06:56:25;;;;;;;8.73;7.43;;;;;;;4.41;62.29;96669.31;4950038;29;20200;-61
2023/01/01 06:58:52;;;;;;;6.88;5.43;;;;;;;4.53;61.87;96673.09;4950488;28;20231;-62
2023/01/01 07:01:22;;;;;;;5.65;4.22;;;;;;;4.46;61.88;96677.38;4949809;29;20208;-62
2023/01/01 07:03:51;;;;;;;30.60;7.03;;;;;;;4.50;62.04;96683.84;4950440;29;20257;-62
2023/01/01 07:06:19;;;;;;;18.00;11.27;;;;;;;4.52;62.17;96681.88;4949670;29;20303;-62
2023/01/01 07:08:46;;;;;;;17.60;10.23;;;;;;;4.70;61.76;96674.59;4950180;29;20239;-61
2023/01/01 07:11:13;;;;;;;5.05;4.43;;;;;;;4.94;61.34;96674.38;4948653;29;20220;-62
2023/01/01 07:13:40;;;;;;;9.07;8.13;;;;;;;4.94;61.28;96665.78;4950293;28;20228;-62
2023/01/01 07:16:07;;;;;;;10.43;7.07;;;;;;;5.01;61.02;96675.28;4950188;29;20207;-61
2023/01/01 07:18:40;;;;;;;7.70;6.70;;;;;;;5.43;59.70;96666.06;4949972;28;20667;-61
2023/01/01 07:21:30;;;;;;;15.35;9.43;;;;;;;5.53;60.25;96674.41;4949786;29;20292;-61
2023/01/01 07:23:59;;;;;;;13.90;8.75;;;;;;;5.44;60.33;96662.50;4950271;28;20243;-62
2023/01/01 07:26:27;;;;;;;26.42;9.02;;;;;;;5.76;60.11;96668.09;4953355;29;20196;-62
2023/01/01 07:28:54;;;;;;;23.95;11.40;;;;;;;5.73;59.61;96652.06;4954134;29;20248;-62
2023/01/01 07:31:32;;;;;;;16.70;9.95;;;;;;;5.66;60.49;96661.53;4953339;29;20231;-63
2023/01/01 07:33:58;;;;;;;18.70;11.73;;;;;;;5.78;59.82;96655.72;4953755;28;20303;-63
2023/01/01 07:36:25;;;;;;;12.43;9.13;;;;;;;5.82;59.60;96661.34;4952889;29;20303;-63
2023/01/01 07:38:53;;;;;;;11.05;9.40;;;;;;;5.63;60.82;96667.13;4953326;29;20196;-63
2023/01/01 07:41:20;;;;;;;8.05;5.10;;;;;;;5.80;60.78;96668.53;4953219;29;20308;-62
2023/01/01 07:43:47;;;;;;;52.03;9.95;;;;;;;5.73;60.54;96667.66;4953577;29;20267;-63
2023/01/01 07:46:15;;;;;;;7.32;6.60;;;;;;;5.91;62.30;96665.50;4952757;28;20263;-63
2023/01/01 07:48:42;;;;;;;5.95;5.45;;;;;;;6.01;60.82;96663.38;4953270;28;20218;-63
2023/01/01 07:51:09;;;;;;;7.95;6.80;;;;;;;5.97;60.32;96655.16;4953271;28;20204;-63
2023/01/01 07:53:35;;;;;;;15.77;8.57;;;;;;;6.14;60.29;96660.94;4949905;28;20208;-65
2023/01/01 07:56:02;;;;;;;13.93;7.70;;;;;;;6.06;60.07;96658.44;4953223;28;20203;-62
2023/01/01 07:58:30;;;;;;;10.90;9.65;;;;;;;6.22;59.58;96660.81;4949376;29;20205;-63
2023/01/01 08:00:56;;;;;;;13.43;8.82;;;;;;;6.27;59.51;96666.28;4944683;29;20645;-62
2023/01/01 08:03:23;;;;;;;18.73;10.93;;;;;;;5.74;60.27;96658.84;4951701;29;20247;-63
2023/01/01 08:05:51;;;;;;;6.25;5.78;;;;;;;6.07;59.81;96667.88;4952760;28;20278;-62
2023/01/01 08:08:17;;;;;;;12.10;8.05;;;;;;;6.55;59.17;96668.94;4952985;28;20227;-62
2023/01/01 08:10:44;;;;;;;12.20;10.90;;;;;;;6.54;58.46;96668.13;4953527;29;20609;-63
2023/01/01 08:13:11;;;;;;;4.93;4.47;;;;;;;6.75;57.61;96670.69;4952693;29;20271;-62
2023/01/01 08:15:38;;;;;;;5.65;5.00;;;;;;;7.01;57.03;96677.91;4953632;29;20204;-64
2023/01/01 08:18:05;;;;;;;14.90;8.27;;;;;;;6.96;56.89;96675.91;4945377;29;20197;-63
2023/01/01 08:20:32;;;;;;;5.75;5.20;;;;;;;7.38;56.35;96671.53;4949633;28;20204;-63
2023/01/01 08:23:01;;;;;;;5.22;4.75;;;;;;;7.56;56.43;96679.66;4951699;28;20820;-63
2023/01/01 08:25:33;;;;;;;12.60;6.60;;;;;;;7.59;56.42;96679.31;4952902;28;20294;-61
2023/01/01 08:28:00;;;;;;;12.25;6.15;;;;;;;7.67;55.81;96676.50;4952675;28;20196;-62
2023/01/01 08:30:27;;;;;;;4.43;3.87;;;;;;;7.71;56.04;96686.38;4952643;29;20227;-62
2023/01/01 08:32:54;;;;;;;4.82;4.28;;;;;;;7.48;56.70;96658.97;4952770;29;20447;-62
2023/01/01 08:35:21;;;;;;;6.45;5.82;;;;;;;7.65;56.27;96681.13;4951779;28;20200;-63
2023/01/01 08:37:48;;;;;;;8.45;7.35;;;;;;;7.83;56.44;96666.53;4952603;29;20251;-63
2023/01/01 08:40:16;;;;;;;7.97;7.17;;;;;;;8.02;55.50;96681.50;4952774;29;20212;-61
2023/01/01 08:42:42;;;;;;;5.30;3.93;;;;;;;8.01;55.41;96679.88;4951985;29;20451;-60
2023/01/01 08:45:09;;;;;;;5.50;5.00;;;;;;;8.61;57.65;96675.63;4952409;29;21014;-66
2023/01/01 08:47:36;;;;;;;8.70;6.77;;;;;;;8.58;57.90;96671.59;4940916;29;20459;-62
2023/01/01 08:50:03;;;;;;;12.07;8.10;;;;;;;8.37;57.01;96682.22;4955673;28;20515;-66
2023/01/01 08:52:30;;;;;;;4.93;3.50;;;;;;;8.65;54.28;96667.16;4950032;29;20459;-64
2023/01/01 08:54:57;;;;;;;5.20;4.03;;;;;;;8.82;54.13;96676.25;4952332;29;20927;-61
2023/01/01 08:57:24;;;;;;;12.53;6.90;;;;;;;8.96;53.49;96674.41;4950193;29;20463;-66
2023/01/01 08:59:51;;;;;;;2.03;1.93;;;;;;;9.02;52.84;96669.19;4952765;28;20451;-64
2023/01/01 09:02:18;;;;;;;5.57;4.67;;;;;;;8.72;53.49;96667.19;4950549;29;20480;-65
2023/01/01 09:04:45;;;;;;;8.63;4.37;;;;;;;8.62;53.16;96662.34;4951300;28;20874;-63
2023/01/01 09:07:11;;;;;;;6.17;4.73;;;;;;;8.94;53.92;96661.53;4952356;28;20455;-62
2023/01/01 09:09:38;;;;;;;9.03;5.30;;;;;;;8.96;53.42;96654.31;4939391;29;21173;-62
2023/01/01 09:12:07;;;;;;;3.00;2.57;;;;;;;9.26;52.85;96653.88;4950711;29;20491;-63
2023/01/01 09:14:34;;;;;;;7.23;5.17;;;;;;;9.34;52.75;96646.63;4951911;28;20448;-63
2023/01/01 09:17:01;;;;;;;8.73;3.57;;;;;;;9.68;52.30;96642.88;4951461;28;20456;-64
2023/01/01 09:19:28;;;;;;;3.60;3.30;;;;;;;9.65;52.63;96632.84;4947030;29;20444;-65
2023/01/01 09:21:55;;;;;;;3.50;2.93;;;;;;;10.06;52.34;96628.00;4949553;29;20514;-65
2023/01/01 09:24:22;;;;;;;15.67;7.27;;;;;;;10.41;51.40;96631.88;4944488;29;20539;-63
2023/01/01 09:26:49;;;;;;;5.17;4.67;;;;;;;10.47;53.28;96627.59;4951165;29;20475;-65
2023/01/01 09:29:20;;;;;;;6.73;3.80;;;;;;;10.84;52.09;96619.63;4951589;29;20495;-63
2023/01/01 09:31:48;;;;;;;3.30;2.77;;;;;;;10.81;51.87;96614.84;4951133;29;20488;-68
2023/01/01 09:34:16;;;;;;;12.23;3.93;;;;;;;11.14;50.34;96604.84;4951290;29;20448;-72
2023/01/01 09:36:44;;;;;;;6.40;4.50;;;;;;;11.21;49.02;96610.81;4950410;29;20443;-70
2023/01/01 09:39:13;;;;;;;2.33;2.17;;;;;;;11.12;48.97;96611.31;4951139;29;20510;-65
2023/01/01 09:41:52;;;;;;;8.47;4.00;;;;;;;11.19;49.18;96607.59;4949885;29;20551;-66
2023/01/01 09:44:18;;;;;;;5.33;4.93;;;;;;;11.38;48.33;96610.25;4940815;29;21063;-66
2023/01/01 09:46:46;;;;;;;14.77;6.27;;;;;;;11.00;49.41;96605.19;4950189;28;20527;-70
2023/01/01 09:49:31;;;;;;;3.50;3.20;;;;;;;11.35;48.80;96589.69;4933951;29;20447;-70
2023/01/01 09:52:04;;;;;;;4.03;3.70;;;;;;;11.58;47.82;96606.38;4950599;29;21238;-69
2023/01/01 09:54:43;;;;;;;6.83;6.13;;;;;;;11.68;48.26;96592.75;4949710;29;20455;-78
2023/01/01 09:57:12;;;;;;;4.23;3.77;;;;;;;11.67;48.43;96588.53;4946371;29;20540;-73
2023/01/01 09:59:46;;;;;;;7.03;6.03;;;;;;;11.18;48.53;96600.75;4947870;29;20475;-73
2023/01/01 10:02:30;;;;;;;6.27;5.33;;;;;;;11.47;48.96;96587.94;4949236;29;20451;-71
2023/01/01 10:05:12;;;;;;;5.83;5.27;;;;;;;11.32;49.02;96590.13;4949451;29;20454;-73
2023/01/01 10:10:20;;;;;;;13.20;7.97;;;;;;;12.01;47.70;96588.69;5039753;28;20605;-76
2023/01/01 10:13:10;;;;;;;9.87;8.83;;;;;;;12.23;47.48;96578.47;5041418;28;20985;-78
2023/01/01 10:15:42;;;;;;;3.33;3.13;;;;;;;12.26;48.64;96572.78;5037009;28;20439;-73
2023/01/01 10:18:18;;;;;;;4.83;4.13;;;;;;;12.46;47.37;96573.28;5053991;28;20445;-71
2023/01/01 10:20:58;;;;;;;7.43;4.37;;;;;;;11.99;47.54;96571.53;5027454;28;20475;-76
2023/01/01 10:23:38;;;;;;;16.70;6.80;;;;;;;12.24;48.00;96578.25;5053634;28;20499;-75
2023/01/01 10:26:15;;;;;;;4.43;3.87;;;;;;;12.08;48.10;96570.19;5039999;28;20450;-72
2023/01/01 10:29:02;;;;;;;4.93;4.43;;;;;;;12.47;47.90;96556.47;5038133;28;20483;-76
2023/01/01 10:31:35;;;;;;;14.10;3.57;;;;;;;12.28;47.08;96568.09;5045183;28;20800;-73
2023/01/01 10:34:18;;;;;;;3.93;3.53;;;;;;;12.09;48.43;96566.56;5062454;28;20450;-75
2023/01/01 10:36:45;;;;;;;4.13;3.37;;;;;;;12.32;48.16;96561.34;5063360;28;20450;-73
2023/01/01 10:39:17;;;;;;;12.70;6.07;;;;;;;12.45;47.60;96555.09;5054808;28;22658;-74
2023/01/01 10:41:44;;;;;;;2.90;1.37;;;;;;;12.29;48.38;96545.22;5042321;28;21045;-72
2023/01/01 10:44:14;;;;;;;10.80;3.87;;;;;;;12.32;48.22;96537.69;5029746;28;20440;-71
2023/01/01 10:46:46;;;;;;;3.03;2.83;;;;;;;12.50;48.12;96542.88;5034793;28;20456;-74
2023/01/01 10:49:15;;;;;;;4.03;2.83;;;;;;;12.68;47.38;96540.13;5030596;28;21288;-72
2023/01/01 10:51:45;;;;;;;6.03;4.00;;;;;;;12.67;46.83;96530.66;5025876;28;20444;-74
2023/01/01 10:54:38;;;;;;;6.93;2.90;;;;;;;12.48;46.98;96529.13;5032292;28;20460;-73
2023/01/01 10:57:19;;;;;;;1.10;1.10;;;;;;;12.45;48.84;96524.34;5058641;28;20435;-70
2023/01/01 10:59:46;;;;;;;10.03;4.47;;;;;;;12.68;48.48;96519.09;5046590;28;20487;-70
2023/01/01 11:02:25;;;;;;;3.30;2.40;;;;;;;12.63;48.40;96516.34;5030594;28;20457;-73
2023/01/01 11:05:15;;;;;;;8.23;3.37;;;;;;;12.99;47.54;96505.56;5035022;28;20485;-72
2023/01/01 11:07:48;;;;;;;4.23;2.93;;;;;;;12.83;47.31;96500.22;5037828;28;20467;-72
2023/01/01 11:10:33;;;;;;;4.73;3.10;;;;;;;13.09;46.98;96500.56;5040915;28;20510;-73
2023/01/01 11:13:00;;;;;;;3.73;3.33;;;;;;;12.56;47.85;96499.09;5034828;28;20509;-80
2023/01/01 11:15:39;;;;;;;4.47;3.80;;;;;;;12.72;47.85;96503.66;5036974;28;20463;-75
2023/01/01 11:18:21;;;;;;;3.47;2.37;;;;;;;12.79;47.22;96489.34;5044202;28;20874;-73
2023/01/01 11:20:57;;;;;;;4.53;3.73;;;;;;;12.93;47.62;96480.22;5051586;28;20454;-71
2023/01/01 11:23:30;;;;;;;1.40;1.37;;;;;;;13.11;47.52;96487.97;5034128;28;20462;-71
2023/01/01 11:25:59;;;;;;;2.83;2.63;;;;;;;13.32;48.72;96483.13;5039488;28;20881;-73
2023/01/01 11:28:30;;;;;;;4.33;3.93;;;;;;;13.94;46.71;96480.31;5041137;28;20597;-72
2023/01/01 11:31:19;;;;;;;9.50;3.67;;;;;;;13.76;45.66;96469.19;5026696;28;20451;-70
2023/01/01 11:33:54;;;;;;;2.83;2.63;;;;;;;13.28;45.93;96472.28;5026946;28;20459;-68
2023/01/01 11:36:27;;;;;;;2.43;1.43;;;;;;;13.40;45.87;96472.22;5023963;28;20436;-71
2023/01/01 11:39:25;;;;;;;4.27;3.90;;;;;;;13.38;46.96;96461.09;5021824;28;20480;-74
2023/01/01 11:41:55;;;;;;;4.00;3.13;;;;;;;13.56;46.65;96455.66;5011665;28;20441;-71
2023/01/01 11:44:43;;;;;;;7.87;3.43;;;;;;;13.67;46.16;96449.53;5023367;28;20444;-73
2023/01/01 11:47:22;;;;;;;2.60;2.33;;;;;;;13.95;45.59;96460.84;5028038;28;20453;-75
2023/01/01 11:50:10;;;;;;;4.20;3.33;;;;;;;13.60;45.72;96451.53;5033156;28;20624;-73
2023/01/01 11:52:39;;;;;;;12.00;4.43;;;;;;;14.09;45.55;96448.16;5047936;28;21056;-73
2023/01/01 11:55:19;;;;;;;1.53;1.43;;;;;;;14.36;44.80;96438.59;5023262;28;20533;-74
2023/01/01 11:58:03;;;;;;;12.73;5.20;;;;;;;15.11;44.29;96436.97;5014806;28;20493;-73
2023/01/01 12:00:34;;;;;;;3.87;3.07;;;;;;;16.13;41.15;96429.03;5011215;28;20452;-73
2023/01/01 12:03:21;;;;;;;5.67;3.20;;;;;;;16.97;40.35;96433.31;5023054;28;20443;-74
2023/01/01 12:06:12;;;;;;;2.93;2.27;;;;;;;17.54;39.40;96429.84;5029344;28;20453;-73